createdAt,value
2023-04-28T00:00:11.866Z,11.16
2023-04-28T00:01:44.725Z,11.16
2023-04-28T00:03:18.977Z,11.12
2023-04-28T00:04:52.350Z,11.12
2023-04-28T00:06:24.668Z,11.11
2023-04-28T00:07:57.876Z,11.13
2023-04-28T00:09:32.782Z,11.16
2023-04-28T00:11:10.183Z,11.19
2023-04-28T00:12:43.338Z,11.21
2023-04-28T00:14:16.993Z,11.16
2023-04-28T00:15:53.179Z,11.23
2023-04-28T00:17:26.480Z,11.25
2023-04-28T00:18:59.672Z,11.26
2023-04-28T00:20:33.295Z,11.21
2023-04-28T00:22:06.720Z,11.22
2023-04-28T00:23:39.874Z,11.19
2023-04-28T00:25:14.392Z,11.19
2023-04-28T00:26:46.608Z,11.22
2023-04-28T00:28:32.918Z,11.15
2023-04-28T00:30:09.482Z,11.15
2023-04-28T00:31:42.671Z,11.15
2023-04-28T00:33:16.173Z,11.20
2023-04-28T00:34:49.573Z,11.21
2023-04-28T00:36:22.941Z,11.24
2023-04-28T00:37:55.126Z,11.21
2023-04-28T00:39:28.566Z,11.20
2023-04-28T00:41:03.434Z,11.22
2023-04-28T00:42:35.794Z,11.22
2023-04-28T00:44:09.535Z,11.19
2023-04-28T00:45:41.776Z,11.25
2023-04-28T00:47:18.933Z,11.26
2023-04-28T00:48:52.455Z,11.22
2023-04-28T00:50:26.827Z,11.18
2023-04-28T00:52:03.813Z,11.09
2023-04-28T00:53:37.811Z,11.07
2023-04-28T00:55:11.751Z,11.10
2023-04-28T00:56:46.498Z,11.08
2023-04-28T00:58:20.578Z,11.00
2023-04-28T00:59:54.128Z,11.00
2023-04-28T01:01:27.677Z,10.97
2023-04-28T01:03:01.431Z,11.01
2023-04-28T01:04:39.441Z,10.99
2023-04-28T01:06:13.576Z,11.00
2023-04-28T01:07:46.921Z,11.04
2023-04-28T01:09:20.135Z,11.00
2023-04-28T01:10:54.378Z,11.00
2023-04-28T01:12:47.412Z,11.00
2023-04-28T01:14:19.598Z,11.00
2023-04-28T01:15:53.664Z,10.98
2023-04-28T01:17:27.035Z,10.98
2023-04-28T01:19:00.687Z,10.92
2023-04-28T01:20:33.995Z,10.92
2023-04-28T01:22:06.301Z,10.90
2023-04-28T01:23:40.025Z,10.88
2023-04-28T01:25:15.120Z,10.85
2023-04-28T01:26:47.230Z,10.82
2023-04-28T01:28:20.486Z,10.76
2023-04-28T01:29:52.764Z,10.68
2023-04-28T01:31:26.324Z,10.68
2023-04-28T01:32:59.020Z,10.69
2023-04-28T01:34:32.131Z,10.67
2023-04-28T01:36:05.478Z,10.64
2023-04-28T01:37:39.024Z,10.66
2023-04-28T01:39:11.333Z,10.65
2023-04-28T01:40:47.987Z,10.63
2023-04-28T01:42:20.185Z,10.62
2023-04-28T01:43:53.587Z,10.65
2023-04-28T01:45:26.729Z,10.64
2023-04-28T01:46:58.985Z,10.62
2023-04-28T01:48:32.220Z,10.62
2023-04-28T01:50:06.330Z,10.61
2023-04-28T01:51:40.695Z,10.61
2023-04-28T01:53:14.642Z,10.63
2023-04-28T01:54:48.276Z,10.62
2023-04-28T01:56:23.979Z,10.61
2023-04-28T01:57:59.298Z,10.54
2023-04-28T01:59:32.860Z,10.53
2023-04-28T02:01:06.824Z,10.49
2023-04-28T02:02:41.224Z,10.48
2023-04-28T02:04:14.568Z,10.45
2023-04-28T02:05:48.552Z,10.37
2023-04-28T02:07:21.988Z,10.31
2023-04-28T02:08:54.313Z,10.33
2023-04-28T02:10:27.523Z,10.32
2023-04-28T02:12:03.684Z,10.32
2023-04-28T02:13:36.858Z,10.31
2023-04-28T02:15:09.867Z,10.29
2023-04-28T02:16:43.018Z,10.27
2023-04-28T02:18:17.129Z,10.21
2023-04-28T02:19:55.359Z,10.19
2023-04-28T02:21:29.140Z,10.13
2023-04-28T02:23:01.475Z,10.02
2023-04-28T02:24:36.974Z,10.03
2023-04-28T02:26:10.255Z,9.99
2023-04-28T02:27:43.921Z,9.96
2023-04-28T02:29:17.057Z,9.98
2023-04-28T02:30:49.219Z,10.02
2023-04-28T02:32:23.191Z,9.99
2023-04-28T02:33:58.125Z,9.97
2023-04-28T02:35:31.355Z,9.95
2023-04-28T02:37:03.886Z,9.90
2023-04-28T02:38:37.067Z,9.87
2023-04-28T02:40:13.015Z,9.85
2023-04-28T02:41:45.177Z,9.78
2023-04-28T02:43:19.798Z,9.73
2023-04-28T02:44:51.973Z,9.73
2023-04-28T02:46:25.432Z,9.68
2023-04-28T02:48:02.389Z,9.63
2023-04-28T02:49:34.614Z,9.57
2023-04-28T02:51:07.892Z,9.51
2023-04-28T02:52:42.135Z,9.44
2023-04-28T02:54:15.496Z,9.40
2023-04-28T02:55:48.965Z,9.35
2023-04-28T02:57:21.323Z,9.31
2023-04-28T02:58:56.183Z,9.28
2023-04-28T03:00:29.469Z,9.24
2023-04-28T03:02:02.648Z,9.23
2023-04-28T03:03:36.010Z,9.20
2023-04-28T03:05:10.668Z,9.18
2023-04-28T03:06:43.002Z,9.14
2023-04-28T03:08:16.170Z,9.11
2023-04-28T03:09:49.327Z,9.07
2023-04-28T03:11:21.974Z,9.03
2023-04-28T03:12:55.124Z,8.96
2023-04-28T03:14:28.638Z,8.98
2023-04-28T03:16:01.850Z,8.95
2023-04-28T03:17:36.766Z,8.94
2023-04-28T03:19:10.157Z,8.93
2023-04-28T03:20:42.279Z,8.92
2023-04-28T03:22:16.126Z,8.93
2023-04-28T03:23:49.577Z,8.89
2023-04-28T03:25:21.852Z,8.88
2023-04-28T03:26:57.618Z,8.87
2023-04-28T03:28:30.080Z,8.83
2023-04-28T03:30:08.499Z,8.80
2023-04-28T03:31:40.686Z,8.78
2023-04-28T03:33:13.926Z,8.76
2023-04-28T03:34:46.390Z,8.78
2023-04-28T03:36:21.404Z,8.74
2023-04-28T03:37:53.758Z,8.69
2023-04-28T03:39:26.961Z,8.67
2023-04-28T03:40:59.127Z,8.61
2023-04-28T03:42:51.335Z,8.56
2023-04-28T03:44:32.656Z,8.53
2023-04-28T03:46:07.430Z,8.54
2023-04-28T03:47:40.020Z,8.58
2023-04-28T03:49:13.606Z,8.58
2023-04-28T03:50:48.181Z,8.57
2023-04-28T03:52:20.668Z,8.60
2023-04-28T03:53:54.000Z,8.66
2023-04-28T03:55:27.362Z,8.70
2023-04-28T03:57:00.834Z,8.68
2023-04-28T03:58:33.038Z,8.75
2023-04-28T04:00:08.938Z,8.75
2023-04-28T04:01:49.783Z,8.76
2023-04-28T04:03:26.481Z,8.71
2023-04-28T04:05:02.343Z,8.71
2023-04-28T04:06:34.992Z,8.76
2023-04-28T04:08:08.766Z,8.72
2023-04-28T04:09:42.050Z,8.74
2023-04-28T04:11:14.972Z,8.80
2023-04-28T04:12:48.750Z,8.87
2023-04-28T04:14:22.085Z,8.85
2023-04-28T04:15:56.169Z,8.82
2023-04-28T04:17:32.293Z,8.79
2023-04-28T04:19:05.460Z,8.71
2023-04-28T04:20:49.841Z,8.67
2023-04-28T04:22:23.028Z,8.71
2023-04-28T04:23:56.257Z,8.75
2023-04-28T04:25:29.728Z,8.75
2023-04-28T04:27:03.225Z,8.73
2023-04-28T04:28:42.928Z,8.71
2023-04-28T04:30:15.886Z,8.72
2023-04-28T04:31:49.748Z,8.71
2023-04-28T04:33:24.510Z,8.72
2023-04-28T04:34:58.110Z,8.71
2023-04-28T04:36:32.966Z,8.73
2023-04-28T04:38:07.481Z,8.76
2023-04-28T04:39:41.135Z,8.77
2023-04-28T04:41:15.557Z,8.80
2023-04-28T04:42:49.491Z,8.84
2023-04-28T04:44:26.865Z,8.88
2023-04-28T04:46:00.988Z,8.92
2023-04-28T04:47:34.355Z,8.98
2023-04-28T04:49:09.377Z,8.97
2023-04-28T04:50:43.828Z,8.96
2023-04-28T04:52:16.230Z,8.99
2023-04-28T04:53:50.126Z,9.04
2023-04-28T04:55:22.438Z,9.07
2023-04-28T04:56:58.362Z,9.07
2023-04-28T04:59:10.410Z,9.13
2023-04-28T05:00:55.016Z,9.11
2023-04-28T05:02:27.259Z,9.16
2023-04-28T05:04:01.088Z,9.19
2023-04-28T05:05:35.974Z,9.23
2023-04-28T05:07:14.007Z,9.24
2023-04-28T05:08:47.740Z,9.25
2023-04-28T05:10:21.344Z,9.30
2023-04-28T05:11:54.877Z,9.30
2023-04-28T05:13:27.951Z,9.27
2023-04-28T05:15:08.638Z,9.25
2023-04-28T05:16:46.096Z,9.23
2023-04-28T05:18:27.667Z,9.20
2023-04-28T05:20:00.957Z,9.21
2023-04-28T05:21:35.973Z,9.22
2023-04-28T05:23:10.656Z,9.28
2023-04-28T05:24:43.953Z,9.33
2023-04-28T05:26:17.428Z,9.38
2023-04-28T05:27:50.951Z,9.47
2023-04-28T05:29:24.149Z,9.54
2023-04-28T05:30:56.763Z,9.58
2023-04-28T05:32:29.955Z,9.60
2023-04-28T05:34:03.143Z,9.61
2023-04-28T05:35:36.368Z,9.65
2023-04-28T05:37:11.848Z,9.69
2023-04-28T05:38:47.223Z,9.72
2023-04-28T05:40:20.588Z,9.75
2023-04-28T05:41:53.804Z,9.76
2023-04-28T05:43:27.415Z,9.76
2023-04-28T05:45:00.893Z,9.79
2023-04-28T05:46:34.238Z,9.79
2023-04-28T05:48:07.983Z,9.80
2023-04-28T05:49:41.963Z,9.77
2023-04-28T05:51:15.348Z,9.75
2023-04-28T05:52:50.082Z,9.77
2023-04-28T05:54:22.309Z,9.80
2023-04-28T05:55:59.412Z,9.82
2023-04-28T05:57:41.740Z,9.80
2023-04-28T05:59:23.499Z,9.76
2023-04-28T06:00:56.698Z,9.78
2023-04-28T06:02:30.486Z,9.77
2023-04-28T06:04:02.850Z,9.75
2023-04-28T06:05:37.415Z,9.73
2023-04-28T06:07:11.176Z,9.77
2023-04-28T06:08:47.055Z,9.81
2023-04-28T06:10:20.556Z,9.82
2023-04-28T06:11:53.707Z,9.78
2023-04-28T06:13:26.941Z,9.82
2023-04-28T06:15:00.474Z,9.83
2023-04-28T06:16:33.843Z,9.84
2023-04-28T06:18:07.562Z,9.90
2023-04-28T06:19:40.950Z,9.95
2023-04-28T06:21:13.291Z,10.02
2023-04-28T06:22:46.459Z,10.08
2023-04-28T06:24:21.293Z,10.13
2023-04-28T06:25:55.085Z,10.19
2023-04-28T06:27:28.701Z,10.23
2023-04-28T06:29:02.816Z,10.29
2023-04-28T06:30:36.906Z,10.34
2023-04-28T06:32:10.075Z,10.33
2023-04-28T06:33:43.469Z,10.38
2023-04-28T06:35:17.827Z,10.46
2023-04-28T06:36:50.989Z,10.55
2023-04-28T06:38:24.170Z,10.62
2023-04-28T06:39:59.053Z,10.72
2023-04-28T06:41:32.364Z,10.80
2023-04-28T06:43:06.640Z,10.92
2023-04-28T06:44:50.275Z,10.90
2023-04-28T06:46:23.751Z,10.95
2023-04-28T06:47:57.166Z,11.05
2023-04-28T06:49:30.339Z,11.09
2023-04-28T06:51:06.618Z,11.02
2023-04-28T06:52:42.058Z,11.09
2023-04-28T06:54:15.367Z,11.18
2023-04-28T06:55:51.665Z,11.34
2023-04-28T06:57:26.818Z,11.50
2023-04-28T06:59:01.803Z,11.62
2023-04-28T07:00:36.046Z,11.77
2023-04-28T07:02:09.489Z,11.87
2023-04-28T07:03:42.802Z,11.95
2023-04-28T07:05:16.655Z,12.01
2023-04-28T07:06:49.950Z,12.04
2023-04-28T07:08:23.086Z,12.08
2023-04-28T07:09:56.309Z,12.12
2023-04-28T07:11:33.582Z,12.20
2023-04-28T07:13:06.789Z,12.09
2023-04-28T07:14:39.917Z,12.11
2023-04-28T07:16:13.159Z,12.19
2023-04-28T07:17:46.818Z,12.24
2023-04-28T07:19:19.993Z,12.32
2023-04-28T07:20:53.100Z,12.26
2023-04-28T07:22:26.470Z,12.29
2023-04-28T07:23:59.730Z,12.22
2023-04-28T07:25:33.267Z,12.07
2023-04-28T07:27:07.877Z,12.03
2023-04-28T07:28:41.353Z,12.16
2023-04-28T07:30:26.451Z,12.15
2023-04-28T07:32:01.254Z,12.24
2023-04-28T07:33:34.533Z,12.27
2023-04-28T07:35:08.793Z,12.24
2023-04-28T07:36:42.109Z,12.18
2023-04-28T07:38:15.298Z,12.07
2023-04-28T07:39:48.468Z,12.12
2023-04-28T07:41:21.728Z,12.09
2023-04-28T07:42:56.538Z,12.16
2023-04-28T07:44:30.042Z,12.27
2023-04-28T07:46:03.279Z,12.34
2023-04-28T07:47:36.940Z,12.50
2023-04-28T07:49:10.339Z,12.59
2023-04-28T07:50:43.610Z,12.70
2023-04-28T07:52:16.767Z,12.85
2023-04-28T07:53:50.088Z,13.03
2023-04-28T07:55:23.403Z,13.26
2023-04-28T07:56:59.135Z,13.44
2023-04-28T07:58:34.026Z,13.56
2023-04-28T08:00:08.705Z,13.59
2023-04-28T08:01:47.873Z,13.67
2023-04-28T08:03:21.686Z,13.59
2023-04-28T08:04:55.202Z,13.65
2023-04-28T08:06:28.796Z,13.47
2023-04-28T08:08:02.642Z,13.51
2023-04-28T08:09:36.240Z,13.57
2023-04-28T08:11:09.403Z,13.54
2023-04-28T08:12:42.633Z,13.52
2023-04-28T08:14:17.976Z,13.51
2023-04-28T08:15:51.602Z,13.52
2023-04-28T08:17:24.866Z,13.43
2023-04-28T08:18:59.105Z,13.35
2023-04-28T08:20:32.760Z,13.23
2023-04-28T08:22:07.319Z,13.26
2023-04-28T08:23:40.568Z,13.32
2023-04-28T08:25:13.947Z,13.31
2023-04-28T08:26:47.413Z,13.15
2023-04-28T08:28:20.502Z,13.02
2023-04-28T08:29:55.035Z,12.91
2023-04-28T08:31:28.412Z,12.87
2023-04-28T08:33:01.777Z,12.93
2023-04-28T08:34:34.975Z,12.94
2023-04-28T08:36:08.867Z,12.95
2023-04-28T08:37:42.575Z,13.00
2023-04-28T08:39:16.088Z,12.97
2023-04-28T08:40:49.233Z,12.94
2023-04-28T08:42:22.428Z,12.95
2023-04-28T08:43:56.571Z,12.82
2023-04-28T08:45:31.978Z,12.72
2023-04-28T08:47:06.321Z,12.76
2023-04-28T08:48:45.210Z,12.87
2023-04-28T08:50:22.899Z,13.24
2023-04-28T08:51:58.409Z,13.50
2023-04-28T08:53:32.400Z,13.50
2023-04-28T08:55:09.772Z,13.86
2023-04-28T08:56:45.577Z,14.14
2023-04-28T08:58:20.045Z,14.35
2023-04-28T08:59:53.611Z,14.51
2023-04-28T09:01:28.791Z,14.53
2023-04-28T09:03:02.457Z,14.70
2023-04-28T09:04:36.301Z,14.78
2023-04-28T09:06:09.550Z,14.92
2023-04-28T09:07:42.979Z,15.04
2023-04-28T09:09:26.886Z,15.22
2023-04-28T09:11:10.234Z,15.48
2023-04-28T09:12:43.599Z,15.69
2023-04-28T09:14:17.005Z,15.89
2023-04-28T09:15:51.216Z,16.10
2023-04-28T09:17:25.870Z,16.10
2023-04-28T09:18:59.732Z,16.15
2023-04-28T09:20:34.500Z,16.70
2023-04-28T09:22:24.654Z,17.11
2023-04-28T09:23:59.906Z,17.63
2023-04-28T09:25:33.298Z,17.90
2023-04-28T09:27:07.848Z,18.27
2023-04-28T09:28:41.291Z,18.61
2023-04-28T09:30:14.881Z,18.89
2023-04-28T09:31:48.066Z,19.04
2023-04-28T09:33:22.855Z,18.61
2023-04-28T09:34:57.771Z,18.26
2023-04-28T09:36:31.738Z,18.44
2023-04-28T09:38:05.007Z,18.66
2023-04-28T09:39:38.210Z,18.59
2023-04-28T09:41:11.822Z,18.68
2023-04-28T09:42:46.816Z,18.98
2023-04-28T09:44:21.579Z,19.19
2023-04-28T09:45:55.532Z,18.85
2023-04-28T09:47:28.951Z,18.52
2023-04-28T09:49:03.669Z,18.35
2023-04-28T09:50:42.049Z,18.08
2023-04-28T09:52:15.258Z,17.87
2023-04-28T09:53:49.087Z,18.03
2023-04-28T09:55:23.091Z,18.04
2023-04-28T09:56:57.505Z,17.72
2023-04-28T09:58:32.946Z,17.73
2023-04-28T10:00:09.609Z,17.29
2023-04-28T10:01:44.995Z,17.53
2023-04-28T10:03:19.990Z,17.69
2023-04-28T10:04:56.524Z,17.84
2023-04-28T10:06:31.347Z,17.94
2023-04-28T10:08:05.444Z,17.85
2023-04-28T10:09:39.389Z,17.61
2023-04-28T10:11:13.637Z,17.33
2023-04-28T10:12:47.415Z,17.05
2023-04-28T10:14:20.674Z,16.71
2023-04-28T10:15:55.582Z,16.65
2023-04-28T10:17:29.796Z,16.61
2023-04-28T10:19:05.500Z,16.52
2023-04-28T10:20:41.033Z,16.57
2023-04-28T10:22:32.395Z,16.74
2023-04-28T10:24:12.701Z,16.93
2023-04-28T10:25:51.230Z,17.13
2023-04-28T10:27:31.414Z,17.27
2023-04-28T10:29:04.977Z,17.21
2023-04-28T10:30:38.446Z,16.97
2023-04-28T10:32:20.406Z,16.53
2023-04-28T10:33:53.728Z,16.53
2023-04-28T10:35:45.913Z,16.50
2023-04-28T10:37:19.634Z,16.37
2023-04-28T10:39:13.186Z,16.65
2023-04-28T10:40:48.090Z,16.74
2023-04-28T10:42:56.385Z,16.67
2023-04-28T10:44:45.249Z,16.59
2023-04-28T10:46:18.606Z,16.53
2023-04-28T10:48:04.519Z,16.75
2023-04-28T10:50:18.681Z,17.14
2023-04-28T10:51:54.897Z,16.93
2023-04-28T10:53:57.658Z,16.69
2023-04-28T10:55:36.425Z,16.74
2023-04-28T10:57:25.188Z,16.83
2023-04-28T10:58:58.538Z,16.83
2023-04-28T11:00:31.663Z,17.00
2023-04-28T11:02:42.594Z,17.15
2023-04-28T11:04:18.364Z,17.08
2023-04-28T11:06:22.944Z,16.83
2023-04-28T11:08:35.178Z,16.79
2023-04-28T11:10:10.175Z,16.78
2023-04-28T11:12:10.687Z,16.78
2023-04-28T11:13:47.038Z,16.83
2023-04-28T11:15:20.225Z,16.89
2023-04-28T11:16:55.510Z,16.86
2023-04-28T11:18:28.799Z,16.96
2023-04-28T11:20:04.535Z,16.99
2023-04-28T11:21:38.063Z,17.02
2023-04-28T11:23:11.977Z,17.06
2023-04-28T11:24:58.060Z,17.24
2023-04-28T11:26:33.603Z,17.28
2023-04-28T11:28:08.732Z,17.24
2023-04-28T11:29:43.664Z,17.04
2023-04-28T11:31:19.445Z,16.79
2023-04-28T11:32:53.211Z,16.88
2023-04-28T11:34:26.809Z,16.86
2023-04-28T11:36:00.047Z,16.83
2023-04-28T11:37:33.259Z,16.77
2023-04-28T11:39:08.568Z,16.68
2023-04-28T11:40:58.017Z,16.67
2023-04-28T11:42:34.064Z,16.59
2023-04-28T11:44:14.390Z,16.49
2023-04-28T11:45:47.812Z,16.52
2023-04-28T11:47:31.321Z,16.59
2023-04-28T11:49:06.694Z,16.82
2023-04-28T11:50:40.306Z,16.92
2023-04-28T11:52:14.210Z,16.98
2023-04-28T11:53:46.931Z,16.75
2023-04-28T11:55:20.020Z,16.64
2023-04-28T11:56:54.418Z,16.58
2023-04-28T11:58:27.951Z,16.46
2023-04-28T12:00:14.501Z,16.55
2023-04-28T12:01:50.782Z,16.62
2023-04-28T12:03:24.510Z,16.50
2023-04-28T12:04:57.989Z,16.64
2023-04-28T12:06:30.210Z,16.71
2023-04-28T12:08:03.390Z,16.79
2023-04-28T12:09:37.722Z,16.98
2023-04-28T12:11:10.973Z,17.25
2023-04-28T12:14:21.785Z,17.52
2023-04-28T12:15:58.681Z,17.58
2023-04-28T12:17:33.505Z,17.68
2023-04-28T12:19:10.048Z,17.56
2023-04-28T12:20:43.641Z,17.62
2023-04-28T12:22:18.005Z,17.67
2023-04-28T12:23:51.756Z,17.39
2023-04-28T12:25:25.532Z,17.26
2023-04-28T12:27:17.683Z,17.18
2023-04-28T12:28:51.215Z,16.94
2023-04-28T12:30:29.701Z,16.82
2023-04-28T12:32:02.001Z,16.79
2023-04-28T12:33:38.615Z,16.83
2023-04-28T12:35:12.342Z,16.81
2023-04-28T12:36:46.456Z,16.71
2023-04-28T12:38:19.689Z,16.81
2023-04-28T12:39:53.046Z,16.87
2023-04-28T12:41:27.583Z,16.95
2023-04-28T12:43:00.688Z,16.80
2023-04-28T12:44:35.646Z,17.05
2023-04-28T12:46:11.105Z,17.27
2023-04-28T12:47:44.886Z,17.22
2023-04-28T12:49:18.324Z,17.18
2023-04-28T12:50:51.508Z,17.06
2023-04-28T12:52:24.798Z,16.97
2023-04-28T12:53:58.386Z,16.92
2023-04-28T12:55:31.590Z,17.17
2023-04-28T12:57:05.807Z,17.41
2023-04-28T12:58:38.080Z,17.51
2023-04-28T13:00:16.653Z,17.53
2023-04-28T13:01:51.967Z,17.33
2023-04-28T13:03:25.331Z,16.95
2023-04-28T13:04:58.907Z,17.02
2023-04-28T13:06:32.966Z,17.28
2023-04-28T13:08:06.661Z,17.33
2023-04-28T13:09:39.977Z,17.43
2023-04-28T13:11:21.813Z,17.33
2023-04-28T13:12:56.311Z,17.14
2023-04-28T13:14:29.399Z,17.10
2023-04-28T13:16:02.750Z,17.07
2023-04-28T13:17:37.290Z,16.99
2023-04-28T13:19:14.095Z,17.04
2023-04-28T13:20:47.198Z,17.01
2023-04-28T13:22:21.799Z,17.10
2023-04-28T13:23:55.401Z,17.14
2023-04-28T13:25:29.321Z,17.08
2023-04-28T13:27:04.091Z,17.01
2023-04-28T13:28:36.827Z,16.80
2023-04-28T13:30:11.550Z,16.75
2023-04-28T13:31:45.171Z,16.71
2023-04-28T13:33:19.695Z,16.78
2023-04-28T13:34:52.901Z,16.96
2023-04-28T13:36:27.122Z,17.02
2023-04-28T13:38:02.804Z,17.09
2023-04-28T13:39:35.983Z,17.13
2023-04-28T13:41:09.159Z,17.27
2023-04-28T13:42:42.470Z,17.37
2023-04-28T13:44:16.038Z,17.41
2023-04-28T13:45:48.234Z,17.42
2023-04-28T13:47:21.852Z,17.33
2023-04-28T13:48:56.770Z,17.54
2023-04-28T13:50:30.479Z,17.72
2023-04-28T13:52:03.716Z,17.81
2023-04-28T13:53:38.080Z,17.65
2023-04-28T13:55:11.160Z,17.52
2023-04-28T13:56:44.743Z,17.43
2023-04-28T13:58:18.062Z,17.28
2023-04-28T13:59:51.296Z,17.22
2023-04-28T14:01:25.402Z,17.19
2023-04-28T14:02:59.456Z,17.26
2023-04-28T14:04:34.459Z,17.34
2023-04-28T14:06:08.217Z,17.42
2023-04-28T14:07:41.486Z,17.36
2023-04-28T14:09:14.996Z,17.53
2023-04-28T14:10:48.246Z,17.71
2023-04-28T14:12:21.398Z,17.88
2023-04-28T14:13:54.511Z,17.98
2023-04-28T14:15:28.196Z,17.93
2023-04-28T14:17:01.682Z,17.76
2023-04-28T14:18:34.936Z,17.60
2023-04-28T14:20:11.760Z,17.59
2023-04-28T14:21:45.130Z,17.33
2023-04-28T14:23:18.422Z,17.27
2023-04-28T14:24:51.581Z,17.09
2023-04-28T14:26:25.365Z,17.10
2023-04-28T14:27:58.812Z,17.20
2023-04-28T14:29:32.004Z,17.29
2023-04-28T14:31:07.521Z,17.28
2023-04-28T14:32:40.694Z,17.31
2023-04-28T14:34:14.443Z,17.43
2023-04-28T14:35:48.929Z,17.38
2023-04-28T14:37:22.123Z,17.38
2023-04-28T14:38:55.295Z,17.28
2023-04-28T14:40:28.900Z,17.21
2023-04-28T14:42:02.028Z,17.24
2023-04-28T14:43:35.303Z,17.18
2023-04-28T14:45:11.181Z,17.13
2023-04-28T14:46:44.905Z,17.09
2023-04-28T14:48:18.345Z,17.13
2023-04-28T14:49:53.342Z,17.13
2023-04-28T14:51:27.909Z,17.24
2023-04-28T14:53:05.717Z,17.24
2023-04-28T14:54:39.362Z,17.20
2023-04-28T14:57:50.210Z,17.24
2023-04-28T14:59:23.917Z,17.28
2023-04-28T15:00:57.083Z,17.33
2023-04-28T15:02:29.750Z,17.31
2023-04-28T15:04:03.316Z,17.16
2023-04-28T15:05:37.108Z,17.05
2023-04-28T15:07:11.867Z,16.89
2023-04-28T15:08:44.980Z,16.77
2023-04-28T15:10:18.348Z,16.66
2023-04-28T15:11:53.576Z,16.61
2023-04-28T15:13:27.952Z,16.59
2023-04-28T15:15:01.235Z,16.48
2023-04-28T15:16:34.473Z,16.41
2023-04-28T15:18:08.062Z,16.52
2023-04-28T15:19:41.336Z,16.72
2023-04-28T15:21:14.524Z,17.07
2023-04-28T15:22:49.014Z,17.27
2023-04-28T15:24:22.345Z,17.24
2023-04-28T15:25:55.615Z,17.17
2023-04-28T15:27:28.723Z,17.08
2023-04-28T15:29:02.119Z,17.04
2023-04-28T15:30:36.324Z,16.91
2023-04-28T15:32:09.781Z,16.75
2023-04-28T15:33:42.941Z,16.59
2023-04-28T15:35:16.645Z,16.42
2023-04-28T15:36:50.525Z,16.42
2023-04-28T15:38:25.017Z,16.54
2023-04-28T15:39:58.163Z,16.78
2023-04-28T15:41:31.304Z,16.92
2023-04-28T15:43:04.751Z,16.89
2023-04-28T15:44:37.826Z,16.81
2023-04-28T15:46:11.375Z,16.68
2023-04-28T15:47:45.348Z,16.53
2023-04-28T15:49:18.810Z,16.44
2023-04-28T15:50:51.995Z,16.23
2023-04-28T15:52:25.209Z,16.13
2023-04-28T15:54:00.386Z,16.01
2023-04-28T15:55:33.745Z,15.98
2023-04-28T15:57:07.030Z,15.91
2023-04-28T15:58:40.094Z,15.89
2023-04-28T16:00:15.745Z,15.87
2023-04-28T16:01:49.322Z,15.80
2023-04-28T16:03:22.710Z,15.76
2023-04-28T16:04:55.958Z,15.81
2023-04-28T16:06:30.365Z,15.75
2023-04-28T16:08:03.938Z,15.76
2023-04-28T16:09:38.563Z,15.78
2023-04-28T16:11:17.618Z,15.78
2023-04-28T16:12:50.929Z,15.72
2023-04-28T16:14:24.511Z,15.67
2023-04-28T16:15:57.715Z,15.62
2023-04-28T16:17:31.115Z,15.62
2023-04-28T16:19:04.589Z,15.55
2023-04-28T16:20:38.174Z,15.49
2023-04-28T16:22:11.323Z,15.51
2023-04-28T16:23:44.536Z,15.46
2023-04-28T16:25:19.307Z,15.46
2023-04-28T16:26:53.513Z,15.44
2023-04-28T16:28:26.878Z,15.46
2023-04-28T16:30:00.145Z,15.50
2023-04-28T16:31:34.013Z,15.46
2023-04-28T16:33:08.731Z,15.43
2023-04-28T16:34:42.047Z,15.42
2023-04-28T16:36:15.217Z,15.39
2023-04-28T16:37:48.332Z,15.37
2023-04-28T16:39:21.931Z,15.35
2023-04-28T16:40:56.442Z,15.24
2023-04-28T16:42:28.669Z,15.19
2023-04-28T16:44:01.882Z,15.21
2023-04-28T16:45:35.577Z,15.17
2023-04-28T16:47:08.770Z,15.08
2023-04-28T16:48:42.084Z,15.05
2023-04-28T16:50:15.767Z,15.02
2023-04-28T16:51:57.717Z,15.01
2023-04-28T16:53:30.953Z,14.97
2023-04-28T16:55:04.299Z,14.93
2023-04-28T16:56:39.624Z,14.92
2023-04-28T16:58:14.466Z,14.88
2023-04-28T16:59:47.760Z,14.88
2023-04-28T17:01:21.091Z,14.87
2023-04-28T17:02:54.347Z,14.80
2023-04-28T17:04:28.226Z,14.77
2023-04-28T17:06:02.528Z,14.67
2023-04-28T17:07:35.694Z,14.65
2023-04-28T17:09:09.760Z,14.59
2023-04-28T17:10:43.311Z,14.52
2023-04-28T17:12:18.051Z,14.47
2023-04-28T17:13:51.228Z,14.35
2023-04-28T17:15:24.491Z,14.23
2023-04-28T17:16:57.906Z,14.14
2023-04-28T17:18:31.228Z,14.04
2023-04-28T17:20:05.987Z,13.98
2023-04-28T17:21:39.357Z,13.93
2023-04-28T17:23:12.870Z,13.83
2023-04-28T17:24:46.151Z,13.79
2023-04-28T17:26:19.379Z,13.71
2023-04-28T17:27:53.979Z,13.60
2023-04-28T17:29:27.859Z,13.52
2023-04-28T17:31:03.682Z,13.45
2023-04-28T17:32:37.565Z,13.39
2023-04-28T17:34:10.856Z,13.33
2023-04-28T17:35:44.441Z,13.34
2023-04-28T17:37:17.637Z,13.33
2023-04-28T17:38:51.556Z,13.32
2023-04-28T17:40:25.359Z,13.32
2023-04-28T17:41:58.945Z,13.29
2023-04-28T17:43:33.893Z,13.29
2023-04-28T17:45:08.013Z,13.26
2023-04-28T17:46:41.355Z,13.25
2023-04-28T17:48:14.746Z,13.12
2023-04-28T17:49:48.288Z,13.06
2023-04-28T17:51:21.897Z,12.88
2023-04-28T17:52:55.071Z,12.69
2023-04-28T17:54:28.276Z,12.62
2023-04-28T17:56:02.381Z,12.51
2023-04-28T17:57:35.541Z,12.42
2023-04-28T17:59:10.879Z,12.42
2023-04-28T18:00:44.184Z,12.39
2023-04-28T18:02:18.425Z,12.39
2023-04-28T18:03:51.805Z,12.41
2023-04-28T18:05:26.120Z,12.41
2023-04-28T18:06:59.356Z,12.39
2023-04-28T18:08:32.650Z,12.39
2023-04-28T18:10:06.361Z,12.32
2023-04-28T18:11:39.571Z,12.35
2023-04-28T18:13:12.856Z,12.31
2023-04-28T18:14:47.733Z,12.30
2023-04-28T18:16:21.813Z,12.25
2023-04-28T18:17:55.015Z,12.23
2023-04-28T18:19:29.001Z,12.21
2023-04-28T18:21:02.442Z,12.21
2023-04-28T18:22:36.002Z,12.21
2023-04-28T18:24:09.199Z,12.18
2023-04-28T18:25:43.778Z,12.18
2023-04-28T18:27:17.255Z,12.15
2023-04-28T18:28:50.363Z,12.12
2023-04-28T18:30:25.057Z,12.09
2023-04-28T18:31:58.260Z,12.03
2023-04-28T18:33:31.431Z,11.97
2023-04-28T18:35:04.837Z,11.84
2023-04-28T18:36:38.352Z,11.72
2023-04-28T18:38:11.852Z,11.60
2023-04-28T18:39:45.257Z,11.52
2023-04-28T18:41:19.638Z,11.42
2023-04-28T18:42:52.905Z,11.34
2023-04-28T18:44:26.353Z,11.39
2023-04-28T18:46:04.323Z,11.37
2023-04-28T18:47:37.540Z,11.34
2023-04-28T18:49:10.832Z,11.34
2023-04-28T18:50:44.674Z,11.35
2023-04-28T18:52:17.870Z,11.32
2023-04-28T18:53:51.081Z,11.15
2023-04-28T18:55:24.285Z,10.98
2023-04-28T18:56:57.518Z,10.82
2023-04-28T18:58:31.189Z,10.71
2023-04-28T19:00:05.215Z,10.69
2023-04-28T19:01:40.251Z,10.66
2023-04-28T19:03:13.757Z,10.62
2023-04-28T19:04:47.162Z,10.55
2023-04-28T19:06:20.461Z,10.53
2023-04-28T19:07:53.571Z,10.50
2023-04-28T19:09:26.797Z,10.48
2023-04-28T19:11:00.201Z,10.40
2023-04-28T19:12:33.638Z,10.37
2023-04-28T19:14:06.884Z,10.28
2023-04-28T19:15:40.141Z,10.22
2023-04-28T19:17:14.861Z,10.17
2023-04-28T19:18:49.001Z,10.13
2023-04-28T19:20:22.340Z,10.10
2023-04-28T19:21:55.869Z,10.04
2023-04-28T19:23:29.801Z,9.99
2023-04-28T19:25:04.291Z,9.87
2023-04-28T19:26:37.465Z,9.85
2023-04-28T19:28:11.850Z,9.77
2023-04-28T19:29:44.979Z,9.68
2023-04-28T19:31:18.262Z,9.61
2023-04-28T19:32:52.817Z,9.62
2023-04-28T19:34:25.938Z,9.58
2023-04-28T19:36:00.292Z,9.54
2023-04-28T19:37:34.126Z,9.48
2023-04-28T19:39:08.345Z,9.43
2023-04-28T19:40:41.521Z,9.32
2023-04-28T19:42:14.676Z,9.19
2023-04-28T19:43:47.994Z,9.05
2023-04-28T19:45:21.304Z,8.94
2023-04-28T19:46:54.723Z,8.90
2023-04-28T19:48:29.248Z,8.84
2023-04-28T19:50:02.569Z,8.80
2023-04-28T19:51:35.774Z,8.62
2023-04-28T19:53:09.575Z,8.50
2023-04-28T19:54:43.523Z,8.40
2023-04-28T19:56:16.673Z,8.35
2023-04-28T19:57:49.952Z,8.33
2023-04-28T19:59:23.738Z,8.32
2023-04-28T20:00:56.904Z,8.35
2023-04-28T20:02:30.134Z,8.36
2023-04-28T20:04:04.892Z,8.37
2023-04-28T20:05:39.247Z,8.36
2023-04-28T20:07:12.415Z,8.36
2023-04-28T20:08:45.908Z,8.34
2023-04-28T20:10:20.299Z,8.26
2023-04-28T20:11:53.811Z,8.24
2023-04-28T20:13:28.420Z,8.23
2023-04-28T20:15:01.747Z,8.13
2023-04-28T20:16:34.815Z,8.00
2023-04-28T20:18:08.156Z,7.96
2023-04-28T20:19:42.690Z,7.98
2023-04-28T20:21:15.786Z,7.95
2023-04-28T20:22:50.823Z,7.95
2023-04-28T20:24:27.038Z,7.92
2023-04-28T20:26:00.298Z,7.91
2023-04-28T20:27:34.627Z,7.91
2023-04-28T20:29:08.662Z,7.83
2023-04-28T20:30:42.420Z,7.78
2023-04-28T20:32:15.780Z,7.68